Time;durP1;ratioP1;P1;durP2;ratioP2;P2;SDS_P1;SDS_P2;PMS_P1;PMS_P2;Temp;Humidity;BMP_temperature;BMP_pressure;BME280_temperature;BME280_humidity;BME280_pressure;Samples;Min_cycle;Max_cycle;Signal;HPM_P1;HPM_P2
2023/08/21 00:01:01;;;;;;;0.10;0.10;;;;;;;24.19;100.00;100501.41;5084172;28;20051;-61
2023/08/21 00:03:27;;;;;;;0.00;0.00;;;;;;;24.16;100.00;100501.66;5072338;28;20033;-61
2023/08/21 00:05:52;;;;;;;0.10;0.10;;;;;;;24.17;100.00;100503.38;5072847;28;20060;-61
2023/08/21 00:08:18;;;;;;;0.00;0.00;;;;;;;24.15;100.00;100506.22;5090138;28;20027;-62
2023/08/21 00:10:43;;;;;;;0.10;0.10;;;;;;;24.17;100.00;100497.94;5087386;28;20518;-61
2023/08/21 00:13:09;;;;;;;0.10;0.10;;;;;;;24.16;100.00;100490.78;5069369;28;20396;-61
2023/08/21 00:15:35;;;;;;;0.03;0.03;;;;;;;24.13;100.00;100497.38;5069392;28;20031;-61
2023/08/21 00:18:00;;;;;;;0.00;0.00;;;;;;;24.13;100.00;100491.06;5087549;28;20028;-61
2023/08/21 00:20:26;;;;;;;0.10;0.10;;;;;;;24.08;100.00;100485.13;5082849;28;20028;-61
2023/08/21 00:22:52;;;;;;;0.10;0.10;;;;;;;24.03;100.00;100495.50;5084187;28;20089;-61
2023/08/21 00:25:17;;;;;;;0.10;0.10;;;;;;;24.00;100.00;100491.16;5077714;28;20478;-61
2023/08/21 00:27:43;;;;;;;0.10;0.10;;;;;;;23.97;100.00;100485.09;5068323;28;20044;-61
2023/08/21 00:30:09;;;;;;;0.10;0.10;;;;;;;23.91;100.00;100483.72;5076883;28;20032;-61
2023/08/21 00:32:35;;;;;;;0.10;0.10;;;;;;;23.92;100.00;100484.59;5088299;28;20032;-61
2023/08/21 00:35:00;;;;;;;0.10;0.10;;;;;;;23.84;100.00;100473.47;5088350;28;20038;-61
2023/08/21 00:37:26;;;;;;;0.10;0.10;;;;;;;23.91;100.00;100482.84;5085406;28;20032;-61
2023/08/21 00:39:51;;;;;;;0.10;0.10;;;;;;;23.94;100.00;100485.31;5087535;28;20024;-61
2023/08/21 00:42:16;;;;;;;0.10;0.10;;;;;;;23.96;100.00;100488.78;5069874;28;20043;-61
2023/08/21 00:44:42;;;;;;;0.10;0.10;;;;;;;23.95;100.00;100485.22;5088017;28;20028;-61
2023/08/21 00:47:07;;;;;;;0.10;0.10;;;;;;;23.96;100.00;100488.78;5085156;28;20019;-61
2023/08/21 00:49:33;;;;;;;0.10;0.10;;;;;;;23.96;100.00;100486.94;5088394;28;20722;-60
2023/08/21 00:52:00;;;;;;;0.10;0.10;;;;;;;23.98;100.00;100489.56;5088505;28;20348;-61
2023/08/21 00:54:25;;;;;;;0.10;0.10;;;;;;;23.94;100.00;100491.63;5087662;28;20032;-61
2023/08/21 00:56:52;;;;;;;0.10;0.10;;;;;;;23.90;100.00;100489.28;5084421;28;20137;-61
2023/08/21 00:59:19;;;;;;;0.10;0.10;;;;;;;23.88;100.00;100488.53;5087581;28;20061;-61
2023/08/21 01:01:45;;;;;;;0.10;0.10;;;;;;;23.91;100.00;100496.44;5076736;28;20150;-61
2023/08/21 01:04:10;;;;;;;0.10;0.10;;;;;;;23.90;100.00;100497.44;5088730;28;20028;-61
2023/08/21 01:06:36;;;;;;;0.10;0.10;;;;;;;23.85;100.00;100494.22;5088774;28;20028;-61
2023/08/21 01:09:07;;;;;;;0.10;0.10;;;;;;;23.79;100.00;100492.00;5088514;28;20024;-61
2023/08/21 01:12:02;;;;;;;0.10;0.10;;;;;;;23.76;100.00;100493.09;5085628;28;20151;-61
2023/08/21 01:14:33;;;;;;;0.10;0.10;;;;;;;23.73;100.00;100497.91;5068044;28;20715;-61
2023/08/21 01:17:02;;;;;;;0.10;0.10;;;;;;;23.69;100.00;100491.00;5078783;28;20106;-61
2023/08/21 01:19:43;;;;;;;0.08;0.08;;;;;;;23.65;100.00;100500.34;5087496;28;20479;-61
2023/08/21 01:22:08;;;;;;;0.00;0.00;;;;;;;23.61;100.00;100504.31;5087575;28;20039;-61
2023/08/21 01:24:34;;;;;;;0.10;0.10;;;;;;;23.59;100.00;100506.28;5086022;28;20032;-61
2023/08/21 01:27:00;;;;;;;0.10;0.10;;;;;;;23.60;100.00;100497.13;5087735;28;20081;-61
2023/08/21 01:29:25;;;;;;;0.10;0.10;;;;;;;23.54;100.00;100503.94;5086662;28;20024;-61
2023/08/21 01:32:00;;;;;;;0.10;0.10;;;;;;;23.54;100.00;100503.06;5085867;28;20056;-61
2023/08/21 01:34:28;;;;;;;0.10;0.10;;;;;;;23.50;100.00;100501.56;5088721;28;20020;-61
2023/08/21 01:36:54;;;;;;;0.10;0.10;;;;;;;23.51;100.00;100504.16;5085064;28;20047;-61
2023/08/21 01:39:20;;;;;;;0.10;0.10;;;;;;;23.57;100.00;100505.53;5088572;28;20082;-61
2023/08/21 01:41:45;;;;;;;0.10;0.10;;;;;;;23.59;100.00;100506.28;5086174;28;20024;-61
2023/08/21 01:44:11;;;;;;;0.10;0.10;;;;;;;23.55;100.00;100507.50;5087685;28;20035;-61
2023/08/21 01:46:36;;;;;;;0.10;0.10;;;;;;;23.50;100.00;100507.84;5088259;28;20468;-61
2023/08/21 01:49:02;;;;;;;0.10;0.10;;;;;;;23.46;100.00;100503.63;5074622;28;20039;-61
2023/08/21 01:51:27;;;;;;;0.10;0.10;;;;;;;23.40;100.00;100507.72;5068636;28;20649;-61
2023/08/21 01:53:52;;;;;;;0.10;0.10;;;;;;;23.40;100.00;100507.72;5071680;28;20086;-61
2023/08/21 01:56:18;;;;;;;0.10;0.10;;;;;;;23.38;100.00;100512.41;5069850;28;20030;-61
2023/08/21 01:58:43;;;;;;;0.10;0.10;;;;;;;23.36;100.00;100508.91;5088284;28;20019;-61
2023/08/21 02:01:09;;;;;;;0.10;0.10;;;;;;;23.34;100.00;100508.16;5084514;28;20024;-61
2023/08/21 02:03:34;;;;;;;0.10;0.10;;;;;;;23.35;100.00;100517.19;5088111;28;20489;-61
2023/08/21 02:05:59;;;;;;;0.10;0.10;;;;;;;23.33;100.00;100519.16;5083102;28;20029;-61
2023/08/21 02:08:31;;;;;;;0.10;0.10;;;;;;;23.29;100.00;100515.81;5069865;28;20074;-61
2023/08/21 02:10:56;;;;;;;0.10;0.10;;;;;;;23.28;100.00;100519.50;5067308;28;20024;-61
2023/08/21 02:13:22;;;;;;;0.10;0.10;;;;;;;23.27;100.00;100517.78;5067086;28;20040;-61
2023/08/21 02:15:47;;;;;;;0.10;0.10;;;;;;;23.26;100.00;100513.31;5066823;28;20054;-61
2023/08/21 02:18:13;;;;;;;0.10;0.10;;;;;;;23.25;100.00;100522.44;5069417;28;20545;-61
2023/08/21 02:20:39;;;;;;;0.10;0.10;;;;;;;23.23;100.00;100518.97;5077751;28;20117;-61
2023/08/21 02:23:05;;;;;;;0.10;0.10;;;;;;;23.22;100.00;100521.78;5082672;28;20028;-61
2023/08/21 02:25:31;;;;;;;0.10;0.10;;;;;;;23.19;100.00;100519.31;5070568;28;20028;-60
2023/08/21 02:27:57;;;;;;;0.10;0.10;;;;;;;23.17;100.00;100519.44;5070375;28;20031;-61
2023/08/21 02:30:25;;;;;;;0.10;0.10;;;;;;;23.15;100.00;100524.13;5073042;28;20037;-61
2023/08/21 02:32:52;;;;;;;0.05;0.05;;;;;;;23.16;100.00;100525.84;5090010;28;20260;-61
2023/08/21 02:35:17;;;;;;;0.10;0.10;;;;;;;23.14;100.00;100526.94;5090194;28;20022;-61
2023/08/21 02:37:43;;;;;;;0.10;0.10;;;;;;;23.13;100.00;100528.78;5072803;28;20048;-61
2023/08/21 02:40:08;;;;;;;0.10;0.10;;;;;;;23.13;100.00;100525.22;5082951;28;20099;-61
2023/08/21 02:42:34;;;;;;;0.10;0.10;;;;;;;23.15;100.00;100528.66;5081518;28;20040;-61
2023/08/21 02:45:03;;;;;;;0.10;0.10;;;;;;;23.15;100.00;100534.97;5069995;28;20055;-60
2023/08/21 02:47:28;;;;;;;0.10;0.10;;;;;;;23.12;100.00;100535.22;5084309;28;20028;-61
2023/08/21 02:49:54;;;;;;;0.10;0.10;;;;;;;23.15;100.00;100528.66;5090552;28;20031;-60
2023/08/21 02:52:19;;;;;;;0.10;0.10;;;;;;;23.17;100.00;100538.44;5076897;28;20024;-61
2023/08/21 02:54:44;;;;;;;0.10;0.10;;;;;;;23.19;100.00;100536.50;5075272;28;20148;-61
2023/08/21 02:57:10;;;;;;;0.10;0.10;;;;;;;23.15;100.00;100536.81;5083951;28;20024;-61
2023/08/21 02:59:35;;;;;;;0.10;0.10;;;;;;;23.11;100.00;100527.19;5077737;28;20032;-61
2023/08/21 03:02:01;;;;;;;0.10;0.10;;;;;;;23.10;100.00;100526.31;5090342;28;20043;-61
2023/08/21 03:04:26;;;;;;;0.10;0.10;;;;;;;23.06;100.00;100535.66;5089103;28;20034;-61
2023/08/21 03:06:52;;;;;;;0.10;0.10;;;;;;;23.01;100.00;100526.16;5091041;28;20039;-60
2023/08/21 03:09:17;;;;;;;0.10;0.10;;;;;;;22.97;100.00;100525.50;5082724;28;20468;-61
2023/08/21 03:11:42;;;;;;;0.10;0.10;;;;;;;22.95;100.00;100527.47;5069689;28;20048;-61
2023/08/21 03:14:08;;;;;;;0.10;0.10;;;;;;;22.92;100.00;100527.69;5077744;28;20054;-61
2023/08/21 03:16:33;;;;;;;0.10;0.10;;;;;;;22.92;100.00;100525.00;5089876;28;20165;-61
2023/08/21 03:19:00;;;;;;;0.10;0.10;;;;;;;22.91;100.00;100534.13;5089671;28;20662;-61
2023/08/21 03:21:26;;;;;;;0.10;0.10;;;;;;;22.87;100.00;100521.75;5089841;28;20024;-61
2023/08/21 03:23:55;;;;;;;0.10;0.10;;;;;;;22.83;100.00;100522.13;5076701;28;20033;-61
2023/08/21 03:26:20;;;;;;;0.10;0.10;;;;;;;22.82;100.00;100529.38;5070744;28;20050;-61
2023/08/21 03:28:46;;;;;;;0.10;0.10;;;;;;;22.82;100.00;100534.81;5076479;28;20036;-61
2023/08/21 03:31:11;;;;;;;0.10;0.10;;;;;;;22.81;100.00;100522.22;5090578;28;20036;-61
2023/08/21 03:33:37;;;;;;;0.10;0.10;;;;;;;22.80;100.00;100528.63;5069409;28;20450;-61
2023/08/21 03:36:03;;;;;;;0.10;0.10;;;;;;;22.80;100.00;100520.47;5087106;28;20034;-61
2023/08/21 03:38:28;;;;;;;0.10;0.10;;;;;;;22.77;100.00;100520.72;5090485;28;20019;-61
2023/08/21 03:40:53;;;;;;;0.10;0.10;;;;;;;22.75;100.00;100528.09;5086808;28;20028;-61
2023/08/21 03:43:19;;;;;;;0.10;0.10;;;;;;;22.78;100.00;100530.59;5090219;28;20099;-62
2023/08/21 03:45:44;;;;;;;0.10;0.10;;;;;;;22.78;100.00;100524.31;5087390;28;20020;-61
2023/08/21 03:48:09;;;;;;;0.10;0.10;;;;;;;22.80;100.00;100520.47;5089770;28;20032;-61
2023/08/21 03:50:35;;;;;;;0.10;0.10;;;;;;;22.80;100.00;100530.47;5090292;28;20034;-61
2023/08/21 03:53:00;;;;;;;0.10;0.10;;;;;;;22.77;100.00;100526.13;5076940;28;20599;-61
2023/08/21 03:55:26;;;;;;;0.10;0.10;;;;;;;22.71;100.00;100533.88;5081041;28;20024;-61
2023/08/21 03:57:51;;;;;;;0.10;0.10;;;;;;;22.60;100.00;100537.34;5086510;28;20574;-60
2023/08/21 04:00:16;;;;;;;0.10;0.10;;;;;;;22.50;100.00;100536.31;5068324;28;20123;-60
2023/08/21 04:02:42;;;;;;;0.10;0.10;;;;;;;22.46;100.00;100531.19;5068936;28;20020;-61
2023/08/21 04:05:08;;;;;;;0.10;0.10;;;;;;;22.47;100.00;100536.50;5070484;28;20048;-61
2023/08/21 04:07:33;;;;;;;0.10;0.10;;;;;;;22.46;100.00;100532.06;5067868;28;20043;-61
2023/08/21 04:09:58;;;;;;;0.10;0.10;;;;;;;22.45;100.00;100533.06;5071623;28;20031;-61
2023/08/21 04:12:24;;;;;;;0.10;0.10;;;;;;;22.41;100.00;100542.38;5087939;28;20127;-61
2023/08/21 04:14:49;;;;;;;0.10;0.10;;;;;;;22.38;100.00;100539.00;5088436;28;20229;-60
2023/08/21 04:17:20;;;;;;;0.10;0.10;;;;;;;22.35;100.00;100540.13;5088612;28;20027;-60
2023/08/21 04:19:46;;;;;;;0.10;0.10;;;;;;;22.35;100.00;100548.25;5085162;28;20030;-60
2023/08/21 04:22:11;;;;;;;0.10;0.10;;;;;;;22.38;100.00;100541.72;5089758;28;20028;-60
2023/08/21 04:24:37;;;;;;;0.10;0.10;;;;;;;22.39;100.00;100544.31;5089538;28;20544;-61
2023/08/21 04:27:02;;;;;;;0.10;0.10;;;;;;;22.37;100.00;100542.72;5089658;28;20039;-61
2023/08/21 04:29:27;;;;;;;0.10;0.10;;;;;;;22.39;100.00;100540.78;5075931;28;20206;-60
2023/08/21 04:31:53;;;;;;;0.13;0.13;;;;;;;22.41;100.00;100553.22;5068809;28;20020;-60
2023/08/21 04:34:18;;;;;;;0.17;0.17;;;;;;;22.43;100.00;100550.41;5070513;28;20037;-61
2023/08/21 04:36:44;;;;;;;0.10;0.10;;;;;;;22.54;100.00;100548.66;5066889;28;20123;-60
2023/08/21 04:39:09;;;;;;;0.10;0.10;;;;;;;22.54;100.00;100551.38;5066644;28;20027;-61
2023/08/21 04:41:35;;;;;;;0.10;0.10;;;;;;;22.50;100.00;100536.31;5085142;28;20028;-61
2023/08/21 04:44:01;;;;;;;0.10;0.10;;;;;;;22.54;100.00;100548.66;5088203;28;20024;-60
2023/08/21 04:46:26;;;;;;;0.10;0.10;;;;;;;22.54;100.00;100548.66;5085262;28;20081;-61
2023/08/21 04:48:52;;;;;;;0.10;0.10;;;;;;;22.52;100.00;100549.75;5088822;28;20102;-60
2023/08/21 04:51:17;;;;;;;0.10;0.10;;;;;;;22.50;100.00;100547.16;5087680;28;20107;-60
2023/08/21 04:53:43;;;;;;;0.10;0.10;;;;;;;22.53;100.00;100548.78;5077979;28;20024;-61
2023/08/21 04:56:08;;;;;;;0.10;0.10;;;;;;;22.56;100.00;100552.13;5088451;28;20075;-61
2023/08/21 04:58:34;;;;;;;0.10;0.10;;;;;;;22.59;100.00;100551.03;5084280;28;20524;-60
2023/08/21 05:00:59;;;;;;;0.10;0.10;;;;;;;22.61;100.00;100562.63;5080037;28;20032;-60
2023/08/21 05:03:25;;;;;;;0.10;0.10;;;;;;;22.64;100.00;100559.69;5067596;28;20025;-61
2023/08/21 05:05:55;;;;;;;0.10;0.10;;;;;;;22.63;100.00;100558.84;5070045;28;20457;-61
2023/08/21 05:08:24;;;;;;;0.13;0.13;;;;;;;22.66;100.00;100563.16;5067660;28;20039;-60
2023/08/21 05:11:00;;;;;;;0.10;0.10;;;;;;;22.71;100.00;100567.28;5067395;28;20043;-61
2023/08/21 05:13:26;;;;;;;0.20;0.20;;;;;;;22.75;100.00;100567.94;5069832;28;20181;-61
2023/08/21 05:15:56;;;;;;;0.10;0.10;;;;;;;22.81;100.00;100573.78;5068905;28;20130;-61
2023/08/21 05:18:22;;;;;;;0.10;0.10;;;;;;;22.85;100.00;100588.81;5085009;28;20035;-60
2023/08/21 05:20:48;;;;;;;0.10;0.10;;;;;;;22.89;100.00;100584.91;5088715;28;20487;-61
2023/08/21 05:23:14;;;;;;;0.10;0.10;;;;;;;22.93;100.00;100582.84;5087592;28;20080;-61
2023/08/21 05:25:39;;;;;;;0.20;0.20;;;;;;;22.95;100.00;100587.16;5070703;28;20032;-60
2023/08/21 05:28:06;;;;;;;0.10;0.10;;;;;;;23.00;100.00;100584.97;5068567;28;20059;-60
2023/08/21 05:30:32;;;;;;;0.15;0.15;;;;;;;23.06;100.00;100576.38;5070617;28;20051;-60
2023/08/21 05:32:57;;;;;;;0.10;0.10;;;;;;;23.14;100.00;100587.53;5069233;28;20032;-61
2023/08/21 05:35:22;;;;;;;0.13;0.13;;;;;;;23.22;100.00;100585.09;5087312;28;20019;-60
2023/08/21 05:37:48;;;;;;;0.10;0.10;;;;;;;23.33;100.00;100587.91;5087778;28;20036;-60
2023/08/21 05:40:13;;;;;;;0.10;0.10;;;;;;;23.46;100.00;100585.09;5088237;28;20036;-60
2023/08/21 05:42:39;;;;;;;0.10;0.10;;;;;;;23.60;100.00;100589.47;5077441;28;20028;-60
2023/08/21 05:45:05;;;;;;;0.10;0.10;;;;;;;23.70;100.00;100591.38;5079750;28;20107;-60
2023/08/21 05:47:31;;;;;;;0.10;0.10;;;;;;;23.81;100.00;100591.41;5085178;28;20124;-60
2023/08/21 05:49:56;;;;;;;0.10;0.10;;;;;;;23.94;100.00;100588.59;5069289;28;20036;-61
2023/08/21 05:52:22;;;;;;;0.10;0.10;;;;;;;24.07;100.00;100592.13;5067868;28;20024;-60
2023/08/21 05:54:48;;;;;;;0.10;0.10;;;;;;;24.19;100.00;100591.13;5077678;28;20028;-60
2023/08/21 05:57:14;;;;;;;0.10;0.10;;;;;;;24.33;100.00;100590.91;5087050;28;20032;-60
2023/08/21 05:59:46;;;;;;;0.10;0.10;;;;;;;24.48;100.00;100590.53;5091427;28;20039;-60
2023/08/21 06:02:13;;;;;;;0.10;0.10;;;;;;;24.61;100.00;100595.88;5091602;28;20024;-60
2023/08/21 06:04:43;;;;;;;0.10;0.10;;;;;;;24.75;100.00;100601.06;5056259;28;20534;-61
2023/08/21 06:07:09;;;;;;;0.10;0.10;;;;;;;24.88;100.00;100598.19;5070979;28;20020;-60
2023/08/21 06:09:36;;;;;;;0.10;0.10;;;;;;;25.00;100.00;100603.50;5087479;28;20111;-60
2023/08/21 06:12:02;;;;;;;0.10;0.10;;;;;;;25.11;100.00;100608.91;5092127;28;20135;-60
2023/08/21 06:14:30;;;;;;;0.10;0.10;;;;;;;25.23;100.00;100613.34;5083224;28;20490;-60
2023/08/21 06:16:57;;;;;;;0.10;0.10;;;;;;;25.34;100.00;100613.31;5081319;28;20024;-60
2023/08/21 06:19:23;;;;;;;0.10;0.10;;;;;;;25.45;100.00;100605.13;5091839;28;20028;-60
2023/08/21 06:21:48;;;;;;;0.10;0.10;;;;;;;25.56;100.00;100613.28;5092049;28;20035;-60
2023/08/21 06:24:14;;;;;;;0.10;0.10;;;;;;;25.67;100.00;100615.06;5088341;28;20028;-60
2023/08/21 06:26:40;;;;;;;0.10;0.10;;;;;;;25.81;100.00;100607.44;5091843;28;20038;-60
2023/08/21 06:29:05;;;;;;;0.10;0.10;;;;;;;25.96;100.00;100613.44;5092003;28;20031;-60
2023/08/21 06:31:31;;;;;;;0.10;0.10;;;;;;;26.11;100.00;100619.44;5078866;28;20034;-60
2023/08/21 06:33:56;;;;;;;0.10;0.10;;;;;;;26.20;100.00;100627.69;5074043;28;20037;-60
2023/08/21 06:36:21;;;;;;;0.10;0.10;;;;;;;26.40;100.00;100615.03;5077897;28;20027;-60
2023/08/21 06:38:47;;;;;;;0.10;0.10;;;;;;;26.59;100.00;100626.06;5080620;28;20158;-60
2023/08/21 06:41:12;;;;;;;0.10;0.10;;;;;;;26.77;100.00;100618.97;5071136;28;20316;-60
2023/08/21 06:43:38;;;;;;;0.10;0.10;;;;;;;26.97;99.72;100623.47;5080999;28;20702;-60
2023/08/21 06:46:03;;;;;;;0.10;0.10;;;;;;;27.26;98.83;100629.88;5071561;28;20021;-59
2023/08/21 06:48:28;;;;;;;0.10;0.10;;;;;;;27.57;95.61;100631.53;5090388;28;20495;-60
2023/08/21 06:50:54;;;;;;;0.00;0.00;;;;;;;27.91;94.22;100635.59;5089513;28;20030;-60
2023/08/21 06:53:19;;;;;;;0.10;0.10;;;;;;;28.06;91.77;100634.16;5087848;28;20032;-60
2023/08/21 06:55:46;;;;;;;0.10;0.10;;;;;;;28.09;90.51;100625.63;5089129;28;20131;-60
2023/08/21 06:58:11;;;;;;;0.10;0.10;;;;;;;28.26;88.74;100630.38;5089635;28;20116;-60
2023/08/21 07:00:36;;;;;;;0.10;0.10;;;;;;;28.36;87.39;100633.06;5087797;28;20036;-60
2023/08/21 07:03:03;;;;;;;0.10;0.10;;;;;;;28.61;88.40;100632.47;5089979;28;20428;-60
2023/08/21 07:05:28;;;;;;;0.03;0.03;;;;;;;28.89;85.34;100633.34;5091017;28;20102;-60
2023/08/21 07:07:55;;;;;;;0.03;0.03;;;;;;;29.06;81.44;100644.34;5088811;28;20124;-60
2023/08/21 07:10:21;;;;;;;0.10;0.10;;;;;;;29.26;78.89;100640.53;5070712;28;20480;-60
2023/08/21 07:12:46;;;;;;;0.10;0.10;;;;;;;29.50;78.20;100635.31;5070830;28;20053;-60
2023/08/21 07:15:12;;;;;;;0.10;0.10;;;;;;;29.85;76.30;100637.25;5073084;28;20031;-60
2023/08/21 07:17:37;;;;;;;0.00;0.00;;;;;;;30.14;75.23;100642.44;5085154;28;20055;-60
2023/08/21 07:20:03;;;;;;;0.10;0.10;;;;;;;30.36;73.41;100644.72;5089890;28;20024;-60
2023/08/21 07:22:29;;;;;;;0.10;0.10;;;;;;;30.60;72.35;100645.72;5084508;28;20519;-60
2023/08/21 07:24:55;;;;;;;0.00;0.00;;;;;;;30.81;71.36;100648.97;5072195;28;20116;-60
2023/08/21 07:27:20;;;;;;;0.08;0.08;;;;;;;30.91;70.44;100645.25;5088510;28;20430;-60
2023/08/21 07:29:46;;;;;;;0.03;0.03;;;;;;;31.09;70.90;100646.03;5067203;28;20051;-60
2023/08/21 07:32:11;;;;;;;0.00;0.00;;;;;;;31.31;68.31;100648.13;5073534;28;20033;-60
2023/08/21 07:34:37;;;;;;;0.00;0.00;;;;;;;31.62;68.39;100641.91;5090683;28;20039;-60
2023/08/21 07:37:02;;;;;;;0.00;0.00;;;;;;;31.92;66.93;100641.28;5090076;28;20134;-60
2023/08/21 07:39:28;;;;;;;0.10;0.10;;;;;;;31.95;66.47;100642.81;5083302;28;20367;-60
2023/08/21 07:41:53;;;;;;;0.00;0.00;;;;;;;32.17;66.09;100647.66;5075469;28;20058;-60
2023/08/21 07:44:19;;;;;;;0.00;0.00;;;;;;;32.14;65.90;100642.50;5079959;28;20554;-59
2023/08/21 07:46:44;;;;;;;0.00;0.00;;;;;;;32.26;65.98;100638.34;5078412;28;20066;-60
2023/08/21 07:49:10;;;;;;;0.00;0.00;;;;;;;32.40;64.29;100643.19;5088222;28;20043;-61
2023/08/21 07:51:36;;;;;;;0.00;0.00;;;;;;;32.64;65.01;100650.53;5087836;28;20059;-60
2023/08/21 07:54:01;;;;;;;0.00;0.00;;;;;;;32.74;62.18;100652.06;5084053;28;20032;-60
2023/08/21 07:56:27;;;;;;;0.00;0.00;;;;;;;32.90;61.34;100652.03;5081651;28;20033;-60
2023/08/21 07:58:52;;;;;;;0.00;0.00;;;;;;;33.06;61.00;100643.72;5069433;28;20553;-60
2023/08/21 08:01:20;;;;;;;0.00;0.00;;;;;;;33.12;60.46;100637.50;5069965;28;20055;-59
2023/08/21 08:03:45;;;;;;;0.00;0.00;;;;;;;33.41;59.11;100644.25;5069457;28;20404;-60
2023/08/21 08:06:10;;;;;;;0.00;0.00;;;;;;;33.47;59.29;100649.06;5079723;28;20031;-60
2023/08/21 08:08:36;;;;;;;0.00;0.00;;;;;;;33.60;58.30;100654.84;5088260;28;20034;-60
2023/08/21 08:11:04;;;;;;;0.00;0.00;;;;;;;33.91;58.81;100647.38;5079942;28;20035;-61
2023/08/21 08:13:30;;;;;;;0.00;0.00;;;;;;;33.79;57.48;100651.63;5087489;28;20043;-60
2023/08/21 08:15:55;;;;;;;0.00;0.00;;;;;;;34.05;57.59;100649.38;5077033;28;20029;-61
2023/08/21 08:18:20;;;;;;;0.00;0.00;;;;;;;34.38;55.54;100648.03;5077010;28;20036;-61
2023/08/21 08:20:46;;;;;;;0.00;0.00;;;;;;;34.72;54.66;100648.41;5068100;28;20034;-61
2023/08/21 08:23:11;;;;;;;0.00;0.00;;;;;;;34.93;56.18;100650.44;5069173;28;20039;-61
2023/08/21 08:25:37;;;;;;;0.00;0.00;;;;;;;35.31;54.80;100655.66;5072002;28;20082;-61
2023/08/21 08:28:02;;;;;;;0.00;0.00;;;;;;;35.63;54.51;100659.91;5069550;28;20066;-61
2023/08/21 08:30:28;;;;;;;0.00;0.00;;;;;;;35.65;53.30;100658.66;5078406;28;20046;-61
2023/08/21 08:32:53;;;;;;;0.00;0.00;;;;;;;35.47;51.28;100661.00;5072997;28;20032;-62
2023/08/21 08:35:19;;;;;;;0.00;0.00;;;;;;;35.74;53.80;100657.47;5069285;28;20020;-61
2023/08/21 08:37:44;;;;;;;0.00;0.00;;;;;;;35.78;53.23;100650.47;5070907;28;20127;-61
2023/08/21 08:40:11;;;;;;;0.00;0.00;;;;;;;35.80;50.57;100653.91;5079514;28;20035;-61
2023/08/21 08:42:36;;;;;;;0.00;0.00;;;;;;;35.80;51.87;100648.38;5068183;28;20544;-62
2023/08/21 08:45:04;;;;;;;0.00;0.00;;;;;;;35.90;52.40;100653.63;5074609;28;20047;-64
2023/08/21 08:47:34;;;;;;;0.00;0.00;;;;;;;35.87;50.81;100650.41;5074023;28;20035;-64
2023/08/21 08:50:05;;;;;;;0.00;0.00;;;;;;;35.99;49.46;100649.69;5083481;28;20082;-64
2023/08/21 08:52:35;;;;;;;0.00;0.00;;;;;;;36.16;50.46;100651.13;5072151;28;20028;-64
2023/08/21 08:55:01;;;;;;;0.00;0.00;;;;;;;35.96;50.82;100647.31;5083365;28;20024;-64
2023/08/21 08:57:26;;;;;;;0.00;0.00;;;;;;;36.31;50.81;100648.28;5077727;28;20088;-64
2023/08/21 08:59:51;;;;;;;0.00;0.00;;;;;;;36.57;51.22;100645.75;5078122;28;20050;-64
2023/08/21 09:02:17;;;;;;;0.00;0.00;;;;;;;36.88;50.66;100646.19;5075904;28;20032;-64
2023/08/21 09:04:43;;;;;;;0.00;0.00;;;;;;;37.09;48.16;100648.88;5083025;28;20042;-64
2023/08/21 09:07:10;;;;;;;0.00;0.00;;;;;;;36.93;48.02;100644.53;5083314;28;20025;-64
2023/08/21 09:09:46;;;;;;;0.00;0.00;;;;;;;37.11;47.43;100649.53;5068381;28;20423;-64
2023/08/21 09:12:13;;;;;;;0.00;0.00;;;;;;;37.13;48.89;100641.00;5086407;28;20044;-64
2023/08/21 09:14:40;;;;;;;0.00;0.00;;;;;;;37.25;47.85;100643.00;5075496;28;20115;-64
2023/08/21 09:17:06;;;;;;;0.00;0.00;;;;;;;37.33;47.48;100645.63;5079234;28;20019;-65
2023/08/21 09:19:32;;;;;;;0.00;0.00;;;;;;;37.29;46.38;100638.75;5085945;28;20088;-64
2023/08/21 09:21:57;;;;;;;0.00;0.00;;;;;;;37.32;47.00;100649.44;5068269;28;20120;-64
2023/08/21 09:24:23;;;;;;;0.00;0.00;;;;;;;37.62;46.83;100639.72;5068149;28;20025;-64
2023/08/21 09:26:50;;;;;;;0.00;0.00;;;;;;;37.67;45.24;100648.28;5069640;28;20095;-64
2023/08/21 09:29:16;;;;;;;0.00;0.00;;;;;;;37.25;46.07;100634.66;5068047;28;20042;-65
2023/08/21 09:31:43;;;;;;;0.00;0.00;;;;;;;37.44;47.56;100638.59;5067812;28;20472;-65
2023/08/21 09:34:09;;;;;;;0.00;0.00;;;;;;;37.58;46.67;100641.19;5081711;28;20028;-64
2023/08/21 09:36:35;;;;;;;0.00;0.00;;;;;;;38.05;44.67;100640.28;5081790;28;20660;-64
2023/08/21 09:39:02;;;;;;;0.00;0.00;;;;;;;38.16;44.60;100634.97;5082923;28;20029;-65
2023/08/21 09:41:28;;;;;;;0.00;0.00;;;;;;;37.98;43.42;100633.84;5068806;28;20626;-64
2023/08/21 09:43:59;;;;;;;0.00;0.00;;;;;;;37.82;46.89;100632.34;5066558;28;20124;-65
2023/08/21 09:46:26;;;;;;;0.00;0.00;;;;;;;38.06;45.34;100634.50;5081563;28;20077;-64
2023/08/21 09:48:52;;;;;;;0.00;0.00;;;;;;;38.19;43.54;100625.34;5086659;28;20035;-65
2023/08/21 09:51:18;;;;;;;0.00;0.00;;;;;;;38.07;44.66;100627.03;5078578;28;20029;-65
2023/08/21 09:53:44;;;;;;;0.00;0.00;;;;;;;38.41;43.55;100623.19;5082687;28;20549;-65
2023/08/21 09:56:10;;;;;;;0.00;0.00;;;;;;;38.48;43.39;100612.94;5084760;28;20197;-65
2023/08/21 09:58:36;;;;;;;0.00;0.00;;;;;;;38.50;43.31;100617.22;5087530;28;20043;-65
2023/08/21 10:01:14;;;;;;;0.00;0.00;;;;;;;38.73;44.06;100622.34;5084057;28;20051;-65
2023/08/21 10:03:42;;;;;;;0.00;0.00;;;;;;;37.55;43.98;100605.53;5067445;28;20119;-65
2023/08/21 10:06:11;;;;;;;0.00;0.00;;;;;;;37.36;45.69;100611.88;5067383;28;20040;-64
2023/08/21 10:08:40;;;;;;;0.00;0.00;;;;;;;37.71;46.99;100610.72;5067094;28;20029;-64
2023/08/21 10:11:08;;;;;;;0.00;0.00;;;;;;;38.03;45.23;100604.34;5074442;28;20031;-64
2023/08/21 10:13:36;;;;;;;0.00;0.00;;;;;;;38.14;44.22;100611.22;5086122;28;20402;-65
2023/08/21 10:16:02;;;;;;;0.00;0.00;;;;;;;38.21;44.47;100605.69;5071026;28;20020;-65
2023/08/21 10:18:33;;;;;;;0.00;0.00;;;;;;;38.24;43.25;100605.25;5070244;28;20860;-65
2023/08/21 10:21:16;;;;;;;0.00;0.00;;;;;;;38.34;43.78;100600.13;5067715;28;20036;-64
2023/08/21 10:23:46;;;;;;;0.00;0.00;;;;;;;38.84;43.91;100602.19;5069814;28;20035;-65
2023/08/21 10:26:12;;;;;;;0.00;0.00;;;;;;;38.97;42.41;100588.22;5080933;28;20467;-65
2023/08/21 10:28:59;;;;;;;0.00;0.00;;;;;;;39.10;42.20;100596.56;5087129;28;20036;-65
2023/08/21 10:31:34;;;;;;;0.00;0.00;;;;;;;39.18;41.29;100594.38;5085982;28;20111;-64
2023/08/21 10:34:03;;;;;;;0.00;0.00;;;;;;;39.04;42.47;100592.75;5077148;28;20086;-65
2023/08/21 10:36:44;;;;;;;0.00;0.00;;;;;;;39.42;42.26;100584.41;5082699;28;20024;-65
2023/08/21 10:39:21;;;;;;;0.00;0.00;;;;;;;39.68;40.44;100584.28;5082859;28;20560;-65
2023/08/21 10:42:09;;;;;;;0.00;0.00;;;;;;;39.78;40.26;100581.00;5065896;28;20047;-65
2023/08/21 10:44:59;;;;;;;0.00;0.00;;;;;;;39.77;40.37;100582.91;5083970;28;20024;-65
2023/08/21 10:47:27;;;;;;;0.00;0.00;;;;;;;39.92;42.09;100580.69;5088680;28;20027;-65
2023/08/21 10:49:55;;;;;;;0.00;0.00;;;;;;;39.91;40.08;100578.16;5073580;28;20119;-66
2023/08/21 10:52:32;;;;;;;0.00;0.00;;;;;;;39.68;40.52;100584.28;5078093;28;20090;-66
2023/08/21 10:54:59;;;;;;;0.00;0.00;;;;;;;39.88;42.90;100582.25;5077234;28;20111;-65
2023/08/21 10:57:27;;;;;;;0.00;0.00;;;;;;;40.04;40.11;100584.47;5068608;28;20024;-65
2023/08/21 11:00:00;;;;;;;0.00;0.00;;;;;;;40.15;38.25;100578.16;5073070;28;20111;-65
2023/08/21 11:02:32;;;;;;;0.00;0.00;;;;;;;40.24;38.11;100579.59;5070541;28;20081;-66
2023/08/21 11:04:58;;;;;;;0.00;0.00;;;;;;;40.36;39.37;100575.00;5072985;28;20091;-65
2023/08/21 11:07:25;;;;;;;0.00;0.00;;;;;;;40.39;39.01;100566.19;5070150;28;20067;-65
2023/08/21 11:09:51;;;;;;;0.00;0.00;;;;;;;40.32;36.59;100573.75;5071964;28;20067;-65
2023/08/21 11:12:19;;;;;;;0.00;0.00;;;;;;;40.61;38.78;100574.97;5072277;28;20456;-65
2023/08/21 11:14:45;;;;;;;0.00;0.00;;;;;;;40.73;37.89;100566.72;5070628;28;20044;-65
2023/08/21 11:17:11;;;;;;;0.00;0.00;;;;;;;40.99;37.74;100572.81;5084199;28;20077;-65